Time;durP1;ratioP1;P1;durP2;ratioP2;P2;SDS_P1;SDS_P2;PMS_P1;PMS_P2;Temp;Humidity;BMP_temperature;BMP_pressure;BME280_temperature;BME280_humidity;BME280_pressure;Samples;Min_cycle;Max_cycle;Signal;HPM_P1;HPM_P2
2022/07/19 00:00:16;;;;;;;11.22;2.60;;;;;;;16.06;68.45;101544.70;1753918;82;21156;-59
2022/07/19 00:02:45;;;;;;;8.25;2.42;;;;;;;16.11;68.43;101548.48;1754046;82;21105;-59
2022/07/19 00:05:14;;;;;;;12.93;2.37;;;;;;;16.13;68.53;101550.59;1753915;81;21041;-59
2022/07/19 00:07:45;;;;;;;8.95;2.20;;;;;;;16.12;68.51;101544.42;1753876;82;21085;-59
2022/07/19 00:10:16;;;;;;;13.78;2.60;;;;;;;16.14;68.65;101543.88;1753957;82;21085;-59
2022/07/19 00:12:44;;;;;;;5.17;2.10;;;;;;;16.17;68.64;101545.03;1753945;82;21053;-59
2022/07/19 00:15:15;;;;;;;5.65;2.08;;;;;;;16.20;68.69;101546.22;1753914;82;21484;-59
2022/07/19 00:17:47;;;;;;;6.00;2.25;;;;;;;16.23;68.61;101548.33;1753913;82;21077;-59
2022/07/19 00:20:18;;;;;;;10.78;3.45;;;;;;;16.24;68.69;101546.07;1753972;82;21120;-59
2022/07/19 00:22:47;;;;;;;4.40;2.83;;;;;;;16.25;68.63;101549.10;1754032;82;21072;-59
2022/07/19 00:25:16;;;;;;;5.67;2.60;;;;;;;16.26;68.54;101552.16;1754003;82;21148;-60
2022/07/19 00:27:45;;;;;;;10.90;3.50;;;;;;;16.26;68.53;101556.16;1754011;82;21053;-60
2022/07/19 00:30:14;;;;;;;8.40;3.42;;;;;;;16.25;68.56;101549.10;1753907;82;21532;-60
2022/07/19 00:32:43;;;;;;;9.03;3.35;;;;;;;16.24;68.65;101543.41;1753847;82;21049;-60
2022/07/19 00:35:12;;;;;;;8.23;2.70;;;;;;;16.25;68.54;101550.44;1754007;82;21151;-60
2022/07/19 00:37:40;;;;;;;4.37;2.72;;;;;;;16.21;68.65;101549.28;1753877;82;21101;-59
2022/07/19 00:40:10;;;;;;;6.15;2.70;;;;;;;16.18;68.61;101550.75;1753912;82;21187;-59
2022/07/19 00:42:39;;;;;;;5.87;2.65;;;;;;;16.14;68.77;101550.52;1753979;82;21065;-59
2022/07/19 00:45:08;;;;;;;7.35;3.08;;;;;;;16.09;68.88;101559.65;1753804;82;21076;-59
2022/07/19 00:47:37;;;;;;;9.98;3.17;;;;;;;16.04;68.90;101558.53;1753927;82;21085;-60
2022/07/19 00:50:06;;;;;;;5.28;2.58;;;;;;;15.98;69.02;101554.86;1753937;82;21195;-59
2022/07/19 00:52:36;;;;;;;5.60;2.30;;;;;;;15.94;69.05;101566.58;1753856;81;21171;-59
2022/07/19 00:55:06;;;;;;;14.45;2.70;;;;;;;15.87;69.21;101558.03;1753887;82;21524;-60
2022/07/19 00:57:40;;;;;;;3.17;2.20;;;;;;;15.82;69.19;101560.92;1753844;82;21132;-60
2022/07/19 01:00:10;;;;;;;5.30;2.30;;;;;;;15.78;69.24;101563.78;1753975;82;21065;-59
2022/07/19 01:02:39;;;;;;;5.37;1.87;;;;;;;15.71;69.42;101564.49;1753986;82;21081;-59
2022/07/19 01:05:10;;;;;;;7.12;2.17;;;;;;;15.65;69.53;101564.80;1753870;81;21085;-58
2022/07/19 01:07:40;;;;;;;3.08;2.08;;;;;;;15.60;69.63;101571.67;1754009;82;21187;-59
2022/07/19 01:10:11;;;;;;;10.00;2.37;;;;;;;15.55;70.14;101564.85;1753738;82;21532;-59
2022/07/19 01:12:41;;;;;;;7.00;2.72;;;;;;;15.50;70.20;101562.87;1753877;82;21163;-59
2022/07/19 01:15:17;;;;;;;8.23;2.47;;;;;;;15.46;70.34;101565.28;1753871;82;21073;-60
2022/07/19 01:17:46;;;;;;;7.03;3.85;;;;;;;15.39;70.39;101562.89;1753434;81;21049;-60
2022/07/19 01:20:16;;;;;;;25.85;8.63;;;;;;;15.36;70.62;101564.38;1753973;82;21077;-60
2022/07/19 01:22:46;;;;;;;27.73;13.28;;;;;;;15.34;70.83;101560.91;1753784;81;21634;-60
2022/07/19 01:25:15;;;;;;;23.20;9.75;;;;;;;15.31;70.90;101560.19;1753862;82;21081;-59
2022/07/19 01:27:49;;;;;;;27.45;13.93;;;;;;;15.27;71.01;101563.47;1753968;82;21147;-60
2022/07/19 01:30:20;;;;;;;30.97;17.48;;;;;;;15.23;70.99;101561.87;1754106;82;21136;-59
2022/07/19 01:32:50;;;;;;;37.65;20.12;;;;;;;15.16;71.06;101560.42;1753935;82;21516;-60
2022/07/19 01:35:19;;;;;;;31.75;18.07;;;;;;;15.12;71.21;101570.78;1753842;82;21234;-59
2022/07/19 01:37:48;;;;;;;28.38;16.37;;;;;;;15.13;71.63;101568.53;1753856;81;21461;-59
2022/07/19 01:40:18;;;;;;;25.25;13.60;;;;;;;15.14;71.81;101566.27;1753848;82;21073;-60
2022/07/19 01:42:48;;;;;;;17.27;11.00;;;;;;;15.09;71.85;101569.58;1753991;82;21072;-59
2022/07/19 01:45:18;;;;;;;20.02;9.08;;;;;;;15.09;72.00;101570.91;1753827;82;21599;-59
2022/07/19 01:47:47;;;;;;;19.42;6.20;;;;;;;15.08;71.92;101567.41;1753813;82;21069;-59
2022/07/19 01:50:18;;;;;;;7.65;3.95;;;;;;;15.06;72.17;101570.11;1753789;82;21583;-59
2022/07/19 01:52:47;;;;;;;11.00;3.95;;;;;;;15.08;72.02;101568.73;1753791;81;21551;-59
2022/07/19 01:55:15;;;;;;;6.25;3.67;;;;;;;15.09;72.03;101561.63;1754033;82;21583;-59
2022/07/19 01:57:44;;;;;;;7.10;3.10;;;;;;;15.08;71.88;101563.42;1753969;82;21077;-59
2022/07/19 02:00:13;;;;;;;6.30;2.83;;;;;;;15.06;71.89;101566.14;1753950;82;21108;-59
2022/07/19 02:02:43;;;;;;;6.58;3.15;;;;;;;15.05;71.89;101569.73;1754141;82;21128;-59
2022/07/19 02:05:12;;;;;;;6.08;3.00;;;;;;;15.01;72.14;101568.16;1754132;82;21073;-59
2022/07/19 02:07:41;;;;;;;9.45;2.90;;;;;;;14.98;72.43;101564.30;1753965;82;21076;-58
2022/07/19 02:10:10;;;;;;;4.80;2.58;;;;;;;14.97;72.57;101563.89;1753948;82;21077;-59
2022/07/19 02:12:39;;;;;;;4.83;2.33;;;;;;;14.95;72.48;101564.43;1753962;82;21097;-59
2022/07/19 02:15:09;;;;;;;4.65;2.77;;;;;;;14.91;72.91;101572.13;1753966;82;21046;-59
2022/07/19 02:17:38;;;;;;;6.25;2.30;;;;;;;14.88;72.69;101569.60;1753943;82;21097;-59
2022/07/19 02:20:08;;;;;;;12.35;2.58;;;;;;;14.84;73.10;101570.67;1754117;82;21626;-59
2022/07/19 02:22:36;;;;;;;3.85;2.27;;;;;;;14.82;73.21;101572.53;1754043;82;21105;-59
2022/07/19 02:25:05;;;;;;;6.75;2.40;;;;;;;14.80;73.21;101566.44;1753887;82;21131;-59
2022/07/19 02:27:34;;;;;;;5.92;2.37;;;;;;;14.82;73.30;101564.58;1753940;82;21077;-58
2022/07/19 02:30:04;;;;;;;10.93;2.25;;;;;;;14.85;73.24;101567.11;1753963;82;21147;-59
2022/07/19 02:32:32;;;;;;;6.50;1.90;;;;;;;14.86;73.00;101570.14;1753921;82;21077;-59
2022/07/19 02:35:01;;;;;;;5.72;1.95;;;;;;;14.87;73.03;101566.58;1753958;82;21512;-59
2022/07/19 02:37:29;;;;;;;10.03;2.30;;;;;;;14.88;73.01;101569.60;1753913;82;21065;-60
2022/07/19 02:39:58;;;;;;;7.30;2.15;;;;;;;14.91;72.92;101568.63;1753967;82;21065;-59
2022/07/19 02:42:27;;;;;;;5.58;1.90;;;;;;;14.94;73.08;101570.69;1753928;82;21072;-59
2022/07/19 02:44:55;;;;;;;7.28;2.10;;;;;;;15.03;73.01;101568.95;1754029;82;21069;-59
2022/07/19 02:47:24;;;;;;;10.78;2.45;;;;;;;15.16;73.14;101564.40;1753925;82;21049;-59
2022/07/19 02:49:53;;;;;;;7.37;2.30;;;;;;;15.21;73.30;101571.22;1753966;82;21542;-59
2022/07/19 02:52:21;;;;;;;3.42;2.12;;;;;;;15.31;73.31;101566.81;1752502;81;21258;-59
2022/07/19 02:54:50;;;;;;;9.28;2.60;;;;;;;15.39;73.57;101568.20;1747804;82;21066;-59
2022/07/19 02:57:19;;;;;;;5.62;2.30;;;;;;;15.57;73.47;101576.25;1747954;82;21065;-58
2022/07/19 02:59:47;;;;;;;3.50;1.70;;;;;;;15.77;73.47;101573.55;1747831;82;21073;-59
2022/07/19 03:02:16;;;;;;;9.73;2.30;;;;;;;16.00;73.42;101573.75;1747830;82;21065;-59
2022/07/19 03:04:44;;;;;;;10.30;2.30;;;;;;;16.21;73.41;101567.88;1747732;82;21049;-59
2022/07/19 03:07:14;;;;;;;7.37;2.02;;;;;;;16.45;73.43;101570.25;1747927;82;21191;-59
2022/07/19 03:09:42;;;;;;;6.35;2.25;;;;;;;16.70;73.05;101571.17;1747820;82;21081;-60
2022/07/19 03:12:12;;;;;;;7.42;2.70;;;;;;;17.14;72.26;101562.69;1747899;82;21069;-59
2022/07/19 03:14:41;;;;;;;8.48;2.47;;;;;;;17.38;71.67;101563.64;1747854;82;21085;-59
2022/07/19 03:17:09;;;;;;;5.03;1.92;;;;;;;17.47;71.31;101565.80;1747815;82;21077;-59
2022/07/19 03:19:38;;;;;;;9.78;2.17;;;;;;;17.55;71.15;101572.02;1747956;82;21069;-59
2022/07/19 03:22:06;;;;;;;2.83;1.87;;;;;;;17.68;71.03;101567.73;1747791;82;21188;-59
2022/07/19 03:24:35;;;;;;;14.38;2.35;;;;;;;17.86;71.01;101571.20;1747955;82;21061;-59
2022/07/19 03:27:04;;;;;;;3.85;2.00;;;;;;;18.04;70.80;101571.97;1747835;82;21183;-59
2022/07/19 03:29:33;;;;;;;7.45;2.75;;;;;;;18.19;70.60;101568.89;1747867;82;21066;-61
2022/07/19 03:32:01;;;;;;;8.08;2.05;;;;;;;18.34;70.50;101572.47;1747747;82;21191;-59
2022/07/19 03:34:30;;;;;;;9.90;2.30;;;;;;;18.45;70.08;101576.70;1747824;82;21521;-59
2022/07/19 03:36:58;;;;;;;3.72;1.82;;;;;;;18.55;69.70;101573.48;1747954;82;21493;-59
2022/07/19 03:39:27;;;;;;;3.72;2.00;;;;;;;18.63;69.43;101580.09;1747808;82;21065;-59
2022/07/19 03:41:55;;;;;;;7.15;2.22;;;;;;;18.76;69.29;101588.22;1747824;82;21081;-59
2022/07/19 03:44:24;;;;;;;8.53;2.40;;;;;;;18.86;68.97;101582.72;1747784;82;21101;-58
2022/07/19 03:46:53;;;;;;;6.97;1.98;;;;;;;18.96;68.68;101584.38;1747867;82;21062;-59
2022/07/19 03:49:21;;;;;;;4.70;1.95;;;;;;;19.09;68.52;101580.48;1747806;82;21530;-59
2022/07/19 03:51:50;;;;;;;4.67;1.62;;;;;;;19.22;68.17;101572.09;1747722;82;21073;-59
2022/07/19 03:54:19;;;;;;;3.85;1.85;;;;;;;19.31;67.60;101573.79;1747719;82;21270;-58
2022/07/19 03:56:47;;;;;;;2.27;1.60;;;;;;;19.43;67.45;101569.88;1747787;82;21069;-59
2022/07/19 03:59:16;;;;;;;6.83;1.67;;;;;;;19.60;67.32;101567.45;1747776;82;21136;-59
2022/07/19 04:01:45;;;;;;;3.70;1.55;;;;;;;19.82;67.05;101568.79;1747819;82;21077;-59
2022/07/19 04:04:13;;;;;;;3.35;1.42;;;;;;;20.03;66.65;101567.88;1747751;82;21073;-59
2022/07/19 04:06:42;;;;;;;8.88;1.80;;;;;;;20.23;66.25;101569.20;1747903;82;21516;-59
2022/07/19 04:09:11;;;;;;;2.87;1.60;;;;;;;20.46;65.69;101570.84;1747797;82;21081;-59
2022/07/19 04:11:42;;;;;;;4.12;1.55;;;;;;;20.66;64.87;101578.40;1747784;82;21136;-59
2022/07/19 04:14:10;;;;;;;3.92;1.60;;;;;;;20.89;64.17;101578.63;1747273;82;21081;-59
2022/07/19 04:16:39;;;;;;;7.03;2.25;;;;;;;21.13;63.51;101574.72;1747829;82;21555;-59
2022/07/19 04:19:08;;;;;;;7.15;1.72;;;;;;;21.38;62.69;101577.86;1747733;82;21148;-59
2022/07/19 04:21:36;;;;;;;7.83;2.98;;;;;;;21.68;61.96;101575.30;1747745;82;21163;-59
2022/07/19 04:24:05;;;;;;;5.58;2.55;;;;;;;21.95;61.22;101566.56;1747652;82;21128;-58
2022/07/19 04:26:34;;;;;;;4.53;1.30;;;;;;;22.21;60.57;101563.77;1747855;82;21120;-58
2022/07/19 04:29:02;;;;;;;4.40;1.65;;;;;;;22.50;60.02;101565.61;1747817;82;21223;-58
2022/07/19 04:31:31;;;;;;;2.50;1.55;;;;;;;22.82;59.28;101572.16;1747837;82;21089;-59
2022/07/19 04:33:59;;;;;;;3.25;1.62;;;;;;;23.11;58.67;101568.07;1747777;82;21136;-58
2022/07/19 04:36:29;;;;;;;2.83;1.70;;;;;;;23.45;58.30;101572.08;1747680;82;21069;-58
2022/07/19 04:38:57;;;;;;;2.98;1.25;;;;;;;23.65;57.29;101565.59;1747801;82;21085;-59
2022/07/19 04:41:26;;;;;;;3.95;1.62;;;;;;;23.81;56.55;101567.89;1747934;82;21073;-58
2022/07/19 04:43:54;;;;;;;4.17;1.30;;;;;;;23.95;56.12;101570.30;1747802;82;21183;-58
2022/07/19 04:46:23;;;;;;;5.62;1.35;;;;;;;24.15;55.54;101565.96;1747807;82;21497;-59
2022/07/19 04:48:51;;;;;;;3.25;1.12;;;;;;;24.25;54.95;101569.60;1747903;82;21172;-58
2022/07/19 04:51:20;;;;;;;2.45;1.50;;;;;;;24.34;54.22;101567.10;1747905;82;21065;-58
2022/07/19 04:53:48;;;;;;;4.12;1.62;;;;;;;24.63;53.84;101572.23;1747720;82;21105;-59
2022/07/19 04:56:17;;;;;;;6.97;1.92;;;;;;;24.92;53.38;101572.92;1747769;82;21865;-59
2022/07/19 04:58:46;;;;;;;5.45;1.65;;;;;;;25.15;52.98;101574.09;1748010;82;21180;-59
2022/07/19 05:01:14;;;;;;;4.12;1.70;;;;;;;25.38;52.46;101570.25;1747810;82;21050;-59
2022/07/19 05:03:43;;;;;;;5.35;1.40;;;;;;;25.58;51.92;101571.17;1747748;82;21104;-59
2022/07/19 05:06:11;;;;;;;5.25;1.75;;;;;;;25.81;51.19;101565.03;1747874;82;21097;-58
2022/07/19 05:08:40;;;;;;;2.65;1.32;;;;;;;26.01;50.66;101555.66;1747817;82;21049;-59
2022/07/19 05:11:09;;;;;;;4.15;1.50;;;;;;;26.14;49.85;101555.37;1747770;82;21097;-58
2022/07/19 05:13:37;;;;;;;3.60;1.20;;;;;;;26.17;49.53;101550.55;1747768;82;21586;-59
2022/07/19 05:16:06;;;;;;;5.83;1.47;;;;;;;26.36;49.05;101547.48;1747659;82;21141;-59
2022/07/19 05:18:35;;;;;;;9.08;1.60;;;;;;;26.40;48.58;101542.14;1747868;82;21116;-59
2022/07/19 05:21:03;;;;;;;9.45;1.40;;;;;;;26.61;48.35;101542.48;1747768;82;21140;-59
2022/07/19 05:23:33;;;;;;;8.40;1.65;;;;;;;26.93;48.17;101536.22;1747791;82;21566;-59
2022/07/19 05:26:01;;;;;;;2.62;1.17;;;;;;;27.24;47.60;101538.66;1747766;82;21073;-59
2022/07/19 05:28:30;;;;;;;4.42;1.60;;;;;;;27.48;47.03;101538.61;1747750;82;21073;-59
2022/07/19 05:30:58;;;;;;;2.80;1.30;;;;;;;27.56;46.42;101536.53;1747856;82;21528;-59
2022/07/19 05:33:29;;;;;;;2.50;1.47;;;;;;;27.57;45.09;101543.11;1747862;82;21108;-59
2022/07/19 05:35:58;;;;;;;3.85;1.72;;;;;;;27.72;45.10;101541.61;1747872;82;21096;-59
2022/07/19 05:38:29;;;;;;;6.62;1.62;;;;;;;27.98;44.78;101546.30;1747852;82;21041;-59
2022/07/19 05:40:57;;;;;;;3.00;1.20;;;;;;;28.23;44.06;101545.16;1747911;82;21070;-59
2022/07/19 05:43:25;;;;;;;7.37;1.37;;;;;;;28.40;43.49;101549.68;1747998;82;21214;-58
2022/07/19 05:45:54;;;;;;;2.47;1.37;;;;;;;28.66;43.15;101543.47;1747889;82;21065;-59
2022/07/19 05:48:22;;;;;;;2.55;1.30;;;;;;;28.90;42.56;101544.63;1747896;82;21156;-59
2022/07/19 05:50:51;;;;;;;4.30;1.82;;;;;;;29.08;42.08;101544.05;1747950;82;21069;-59
2022/07/19 05:53:20;;;;;;;1.80;1.40;;;;;;;29.10;41.48;101539.31;1747839;82;21057;-59
2022/07/19 05:55:48;;;;;;;3.65;1.65;;;;;;;28.96;40.60;101534.52;1747648;82;21192;-59
2022/07/19 05:58:23;;;;;;;5.25;1.87;;;;;;;28.91;40.29;101544.48;1747937;82;21085;-59
2022/07/19 06:03:27;;;;;;;3.55;1.70;;;;;;;28.91;39.51;101540.92;1721140;82;21620;-58
2022/07/19 06:05:55;;;;;;;3.30;1.80;;;;;;;29.13;39.47;101540.35;1747919;82;21563;-58
2022/07/19 06:08:24;;;;;;;7.25;2.05;;;;;;;29.25;39.17;101533.67;1747777;82;21199;-58
2022/07/19 06:10:53;;;;;;;11.48;2.35;;;;;;;29.41;39.08;101537.44;1747846;82;21582;-59
2022/07/19 06:13:22;;;;;;;5.70;1.40;;;;;;;29.58;38.97;101525.61;1747797;82;21574;-59
2022/07/19 06:15:51;;;;;;;4.58;1.20;;;;;;;29.50;36.64;101522.89;1747856;82;21074;-59
2022/07/19 06:18:20;;;;;;;10.03;1.85;;;;;;;29.44;36.93;101527.11;1747833;82;21082;-58
2022/07/19 06:20:49;;;;;;;7.42;1.72;;;;;;;29.45;36.73;101526.11;1747735;82;21583;-58
2022/07/19 06:23:17;;;;;;;4.85;1.77;;;;;;;29.51;36.16;101521.89;1747834;82;21140;-58
2022/07/19 06:25:46;;;;;;;12.35;3.40;;;;;;;29.57;36.12;101525.28;1747841;82;21112;-58
2022/07/19 06:28:14;;;;;;;3.67;1.72;;;;;;;29.58;35.47;101518.83;1747871;82;21042;-58
2022/07/19 06:30:43;;;;;;;2.12;1.00;;;;;;;29.62;35.11;101513.43;1747844;81;21042;-58
2022/07/19 06:33:11;;;;;;;1.02;0.82;;;;;;;29.46;33.75;101513.39;1747775;82;21469;-59
2022/07/19 06:35:41;;;;;;;1.10;0.80;;;;;;;29.37;33.71;101517.09;1747846;82;21678;-59
2022/07/19 06:38:10;;;;;;;5.33;1.42;;;;;;;29.30;33.00;101524.19;1748037;82;21486;-59
2022/07/19 06:40:39;;;;;;;1.87;0.80;;;;;;;29.45;33.60;101516.62;1747896;82;21081;-58
2022/07/19 06:43:08;;;;;;;2.37;1.02;;;;;;;29.55;33.10;101525.96;1747822;82;21579;-59
2022/07/19 06:45:37;;;;;;;4.17;1.45;;;;;;;29.58;33.00;101522.89;1747749;82;21520;-59
2022/07/19 06:48:06;;;;;;;1.22;0.82;;;;;;;29.76;33.08;101519.25;1747920;82;21097;-59
2022/07/19 06:50:35;;;;;;;7.22;1.90;;;;;;;30.13;33.28;101516.56;1747845;82;21069;-59
2022/07/19 06:53:04;;;;;;;4.15;1.05;;;;;;;30.35;32.88;101511.82;1747828;82;21140;-58
2022/07/19 06:55:33;;;;;;;3.42;1.40;;;;;;;30.53;32.52;101517.06;1747802;81;21085;-59
2022/07/19 06:58:01;;;;;;;3.40;1.22;;;;;;;30.69;32.44;101516.68;1747871;82;21042;-59
2022/07/19 07:00:30;;;;;;;2.95;0.90;;;;;;;30.87;32.36;101512.39;1747769;82;21129;-59
2022/07/19 07:02:59;;;;;;;10.28;2.55;;;;;;;31.24;32.55;101519.08;1747935;82;21077;-59
2022/07/19 07:05:28;;;;;;;6.40;1.30;;;;;;;31.45;32.19;101517.08;1747831;82;21144;-58
2022/07/19 07:07:57;;;;;;;2.87;1.10;;;;;;;31.69;31.80;101511.54;1747826;82;21572;-59
2022/07/19 07:10:25;;;;;;;2.22;1.07;;;;;;;31.85;31.46;101510.55;1747814;82;21121;-59
2022/07/19 07:12:54;;;;;;;2.55;1.20;;;;;;;32.11;30.82;101512.09;1747748;82;21159;-59
2022/07/19 07:15:24;;;;;;;4.15;1.42;;;;;;;32.04;30.38;101500.23;1747809;82;21058;-59
2022/07/19 07:17:52;;;;;;;3.08;1.10;;;;;;;31.87;29.89;101505.80;1747895;82;21141;-59
2022/07/19 07:20:21;;;;;;;3.72;1.25;;;;;;;31.58;29.32;101493.39;1747951;82;21065;-58
2022/07/19 07:22:50;;;;;;;4.50;1.05;;;;;;;31.65;30.13;101499.81;1747851;82;21112;-58
2022/07/19 07:25:18;;;;;;;3.22;1.05;;;;;;;32.13;30.32;101501.87;1747880;82;21508;-59
2022/07/19 07:27:47;;;;;;;5.00;1.27;;;;;;;32.52;30.31;101500.82;1747833;82;21161;-59
2022/07/19 07:30:16;;;;;;;3.10;1.10;;;;;;;32.84;30.09;101504.23;1747850;82;21685;-59
2022/07/19 07:32:44;;;;;;;2.30;1.02;;;;;;;33.07;29.64;101503.61;1747837;82;21089;-58
2022/07/19 07:35:13;;;;;;;2.90;1.10;;;;;;;33.03;29.32;101500.91;1748004;82;21074;-58
2022/07/19 07:37:41;;;;;;;4.65;0.93;;;;;;;32.97;29.28;101494.03;1747833;82;21140;-58
2022/07/19 07:40:11;;;;;;;4.12;0.95;;;;;;;33.11;29.17;101501.84;1747888;82;21090;-58
2022/07/19 07:42:40;;;;;;;6.42;1.12;;;;;;;33.30;29.08;101499.09;1747920;82;21077;-59
2022/07/19 07:45:09;;;;;;;2.95;1.10;;;;;;;33.55;28.90;101491.37;1747905;82;21065;-58
2022/07/19 07:47:39;;;;;;;9.55;1.27;;;;;;;33.68;28.81;101498.89;1747903;82;21064;-59
2022/07/19 07:50:08;;;;;;;2.33;1.00;;;;;;;33.90;28.77;101497.00;1747811;81;21085;-58
2022/07/19 07:52:37;;;;;;;2.77;1.00;;;;;;;34.03;27.92;101501.21;1747709;82;21135;-59
2022/07/19 07:55:06;;;;;;;7.92;1.40;;;;;;;33.61;26.68;101491.98;1747770;82;21120;-59
2022/07/19 07:57:35;;;;;;;2.08;0.80;;;;;;;33.69;26.91;101495.13;1752663;82;21114;-59
2022/07/19 08:00:06;;;;;;;1.98;0.90;;;;;;;33.51;26.13;101502.36;1753955;82;21081;-59
2022/07/19 08:02:45;;;;;;;5.80;1.10;;;;;;;33.36;26.17;101492.86;1753353;82;21101;-59
2022/07/19 08:05:14;;;;;;;0.82;0.65;;;;;;;33.44;26.67;101496.31;1753992;82;21507;-59
2022/07/19 08:07:42;;;;;;;2.25;0.82;;;;;;;33.64;26.54;101483.38;1753923;82;21073;-59
2022/07/19 08:10:11;;;;;;;2.10;1.05;;;;;;;33.59;25.10;101494.06;1753988;82;21140;-59
2022/07/19 08:12:39;;;;;;;3.70;0.88;;;;;;;33.27;25.30;101496.20;1754017;82;21116;-59
2022/07/19 08:15:09;;;;;;;1.22;0.70;;;;;;;33.06;25.32;101486.06;1754001;82;21117;-59
2022/07/19 08:17:37;;;;;;;4.53;0.98;;;;;;;32.85;25.21;101484.09;1753918;82;21170;-59
2022/07/19 08:20:07;;;;;;;6.65;0.90;;;;;;;32.79;25.55;101493.88;1753921;82;21205;-59
2022/07/19 08:22:36;;;;;;;3.80;1.12;;;;;;;32.90;25.51;101481.66;1754033;82;21191;-59
2022/07/19 08:25:06;;;;;;;1.77;0.80;;;;;;;33.09;25.51;101485.17;1753936;82;21073;-59
2022/07/19 08:27:34;;;;;;;0.95;0.60;;;;;;;33.47;25.86;101477.33;1754016;82;21077;-59
2022/07/19 08:30:04;;;;;;;2.52;1.25;;;;;;;33.70;25.36;101479.05;1753817;82;21066;-59
2022/07/19 08:32:33;;;;;;;3.83;1.10;;;;;;;33.41;24.86;101472.66;1754000;82;21081;-59
2022/07/19 08:35:01;;;;;;;2.80;1.00;;;;;;;33.41;24.86;101472.66;1754002;82;21053;-58
2022/07/19 08:37:30;;;;;;;1.92;0.93;;;;;;;33.60;24.58;101461.61;1754005;82;21500;-59
2022/07/19 08:39:58;;;;;;;3.17;1.10;;;;;;;33.39;24.43;101466.02;1754117;82;21105;-58
2022/07/19 08:42:27;;;;;;;6.40;2.02;;;;;;;33.13;24.62;101463.84;1753982;82;21077;-59
2022/07/19 08:44:58;;;;;;;1.52;0.80;;;;;;;33.02;24.67;101465.67;1753984;82;21599;-58
2022/07/19 08:47:31;;;;;;;3.87;1.20;;;;;;;33.09;25.05;101463.87;1754138;82;21084;-59
2022/07/19 08:50:01;;;;;;;10.23;1.52;;;;;;;33.38;25.16;101458.86;1753892;82;21148;-59
2022/07/19 08:52:31;;;;;;;14.40;2.95;;;;;;;33.35;24.87;101453.80;1754042;82;21152;-59
2022/07/19 08:55:00;;;;;;;4.22;1.37;;;;;;;33.73;25.35;101448.64;1753828;82;21065;-59
2022/07/19 09:00:16;;;;;;;2.75;1.20;;;;;;;34.52;25.02;101448.95;1747848;82;21073;-59
2022/07/19 09:02:59;;;;;;;2.65;1.10;;;;;;;34.84;24.98;101447.44;1747788;82;21508;-59
2022/07/19 09:05:29;;;;;;;6.60;1.45;;;;;;;35.09;24.70;101447.77;1747315;82;21156;-59
2022/07/19 09:08:07;;;;;;;2.40;0.80;;;;;;;35.26;24.37;101445.52;1747873;82;21570;-59
2022/07/19 09:10:38;;;;;;;7.58;1.75;;;;;;;35.26;23.71;101446.89;1747975;82;21062;-59
2022/07/19 09:13:15;;;;;;;7.83;1.40;;;;;;;35.29;23.73;101449.77;1748220;82;21113;-59
2022/07/19 09:15:50;;;;;;;5.60;1.52;;;;;;;35.17;23.69;101446.73;1747841;82;21204;-59
2022/07/19 09:18:24;;;;;;;0.90;0.90;;;;;;;35.02;23.36;101451.53;1747884;82;21243;-59
2022/07/19 09:20:55;;;;;;;5.75;0.95;;;;;;;34.32;23.38;101615.55;1747297;82;21081;-59
2022/07/19 09:23:25;;;;;;;3.20;0.93;;;;;;;32.53;24.27;101447.98;1747554;82;21144;-59
2022/07/19 09:25:56;;;;;;;1.30;1.00;;;;;;;32.53;24.27;101447.98;1747816;82;21508;-59
2022/07/19 09:28:26;;;;;;;2.08;0.90;;;;;;;31.72;24.44;101449.06;1747709;82;21513;-60
2022/07/19 09:30:57;;;;;;;2.98;1.10;;;;;;;31.46;24.85;101439.35;1747865;82;21159;-59
2022/07/19 09:33:31;;;;;;;6.75;2.10;;;;;;;31.31;25.55;101442.52;1747961;82;21053;-59
2022/07/19 09:36:04;;;;;;;7.37;2.98;;;;;;;31.34;25.89;101443.53;1747843;82;21076;-59
2022/07/19 09:38:34;;;;;;;4.75;1.42;;;;;;;31.37;25.93;101436.35;1746265;82;21049;-59
2022/07/19 09:41:11;;;;;;;8.75;1.20;;;;;;;31.05;26.17;101444.21;1747770;82;21151;-59
2022/07/19 09:44:05;;;;;;;2.42;1.55;;;;;;;30.82;26.52;101442.73;1747874;82;21037;-59
2022/07/19 09:46:47;;;;;;;1.57;1.12;;;;;;;30.58;26.80;101439.08;1746804;82;21168;-59
2022/07/19 09:49:17;;;;;;;3.83;1.30;;;;;;;30.25;26.91;101444.59;1747452;82;21074;-59
2022/07/19 09:51:49;;;;;;;10.23;2.45;;;;;;;30.89;26.93;101430.14;1747929;82;21069;-59
2022/07/19 09:54:20;;;;;;;7.05;1.90;;;;;;;31.57;26.93;101431.84;1748057;82;21069;-58
2022/07/19 09:56:50;;;;;;;2.52;1.32;;;;;;;32.34;26.67;101434.41;1747922;82;21062;-59
2022/07/19 09:59:19;;;;;;;1.87;0.90;;;;;;;32.89;26.26;101436.34;1747787;82;21564;-58
2022/07/19 10:01:50;;;;;;;2.20;1.40;;;;;;;33.03;25.77;101430.52;1747876;82;21039;-58
2022/07/19 10:04:26;;;;;;;1.37;0.95;;;;;;;32.70;25.64;101429.08;1747936;82;21073;-59
2022/07/19 10:06:55;;;;;;;7.33;1.40;;;;;;;32.10;25.68;101431.41;1747917;82;21191;-58
2022/07/19 10:09:24;;;;;;;3.65;1.67;;;;;;;31.72;25.97;101431.38;1747873;82;21085;-58
2022/07/19 10:11:53;;;;;;;3.92;1.70;;;;;;;31.94;26.33;101428.28;1747842;82;21069;-58
2022/07/19 10:14:22;;;;;;;2.50;1.35;;;;;;;31.85;26.29;101434.84;1747710;82;21512;-59
2022/07/19 10:17:22;;;;;;;3.35;1.10;;;;;;;31.57;26.43;101425.03;1747861;82;21073;-59
2022/07/19 10:19:51;;;;;;;1.70;1.27;;;;;;;31.64;26.64;101427.37;1747816;82;21136;-59
2022/07/19 10:22:26;;;;;;;3.52;1.30;;;;;;;31.92;26.97;101421.66;1747864;82;21077;-59
2022/07/19 10:25:00;;;;;;;3.95;1.20;;;;;;;31.90;26.79;101418.28;1747802;82;21146;-59
2022/07/19 10:27:32;;;;;;;11.33;2.33;;;;;;;31.52;26.98;101422.35;1747818;82;21081;-59
2022/07/19 10:30:12;;;;;;;5.35;1.45;;;;;;;31.12;27.23;101415.28;1747800;82;21077;-60
2022/07/19 10:32:46;;;;;;;5.80;1.10;;;;;;;30.61;27.46;101421.08;1747853;82;21078;-59
2022/07/19 10:35:27;;;;;;;2.40;1.15;;;;;;;30.31;28.01;101425.39;1747703;82;21504;-59
2022/07/19 10:38:04;;;;;;;4.25;1.05;;;;;;;30.11;28.09;101420.84;1747925;82;21075;-59
2022/07/19 10:40:47;;;;;;;4.05;1.40;;;;;;;29.88;28.25;101424.75;1747844;82;21148;-59
2022/07/19 10:43:24;;;;;;;4.25;1.00;;;;;;;29.64;28.52;101419.13;1747957;82;21077;-59
2022/07/19 10:46:02;;;;;;;6.50;1.45;;;;;;;29.40;28.92;101416.37;1747942;82;21218;-59
2022/07/19 10:48:38;;;;;;;7.10;1.32;;;;;;;29.16;29.09;101416.70;1747813;82;21089;-59
2022/07/19 10:51:30;;;;;;;4.78;1.20;;;;;;;29.04;29.31;101413.91;1747828;82;21109;-59
2022/07/19 10:54:02;;;;;;;3.12;1.55;;;;;;;28.93;29.50;101409.63;1747727;82;21107;-59
2022/07/19 10:56:40;;;;;;;4.58;2.00;;;;;;;28.77;29.57;101418.54;1747993;82;21512;-59
2022/07/19 10:59:13;;;;;;;7.72;1.05;;;;;;;28.68;29.75;101411.39;1750956;81;21105;-59
2022/07/19 11:01:56;;;;;;;2.40;0.98;;;;;;;28.57;29.82;101408.97;1753926;82;21143;-59
2022/07/19 11:04:30;;;;;;;5.60;1.00;;;;;;;28.41;29.92;101413.27;1753821;82;21500;-59
2022/07/19 11:07:13;;;;;;;2.25;1.12;;;;;;;28.38;30.10;101410.03;1753936;82;21163;-59
2022/07/19 11:09:44;;;;;;;5.08;1.47;;;;;;;28.57;30.14;101407.61;1753948;82;21073;-59
2022/07/19 11:12:25;;;;;;;3.05;1.07;;;;;;;28.69;30.21;101402.26;1753404;82;21476;-59
2022/07/19 11:14:54;;;;;;;3.75;1.30;;;;;;;28.74;30.18;101405.34;1753854;82;21476;-59
2022/07/19 11:17:22;;;;;;;1.67;1.05;;;;;;;28.75;29.96;101396.17;1753915;82;21053;-59
2022/07/19 11:20:07;;;;;;;10.90;1.52;;;;;;;28.88;29.89;101402.01;1753932;82;21562;-58
2022/07/19 11:22:42;;;;;;;4.17;1.07;;;;;;;29.03;30.09;101399.52;1750782;82;21551;-59
2022/07/19 11:25:12;;;;;;;2.95;1.07;;;;;;;29.16;30.18;101396.84;1753086;82;21136;-59
2022/07/19 11:27:43;;;;;;;3.25;1.07;;;;;;;29.13;30.15;101404.78;1753976;82;21166;-59
2022/07/19 11:30:14;;;;;;;2.22;0.90;;;;;;;29.05;30.17;101402.06;1754131;82;21093;-59
2022/07/19 11:32:43;;;;;;;3.85;1.00;;;;;;;28.94;30.13;101402.34;1754031;82;21190;-59
2022/07/19 11:35:15;;;;;;;3.17;0.98;;;;;;;28.96;30.16;101407.12;1753920;82;21586;-59
2022/07/19 11:37:44;;;;;;;3.20;0.98;;;;;;;28.83;30.17;101403.00;1753838;82;21504;-59
2022/07/19 11:40:13;;;;;;;3.85;1.27;;;;;;;28.78;30.38;101400.44;1753949;82;21057;-58
2022/07/19 11:42:45;;;;;;;3.12;1.40;;;;;;;28.76;30.44;101400.59;1753931;82;21583;-59